Time;durP1;ratioP1;P1;durP2;ratioP2;P2;SDS_P1;SDS_P2;PMS_P1;PMS_P2;Temp;Humidity;BMP_temperature;BMP_pressure;BME280_temperature;BME280_humidity;BME280_pressure;Samples;Min_cycle;Max_cycle;Signal;HPM_P1;HPM_P2
2023/08/09 00:00:13;;;;;;;2.72;1.25;;;;;;;11.30;100.00;101085.69;4945381;29;20051;-75
2023/08/09 00:02:40;;;;;;;5.13;1.60;;;;;;;11.29;100.00;101095.38;4949940;29;20051;-75
2023/08/09 00:05:08;;;;;;;8.75;1.80;;;;;;;11.29;100.00;101082.19;4894850;28;20061;-75
2023/08/09 00:07:35;;;;;;;5.18;1.67;;;;;;;11.28;100.00;101080.41;4966166;28;20051;-75
2023/08/09 00:10:04;;;;;;;5.88;1.63;;;;;;;11.28;100.00;101082.16;4948993;29;20059;-75
2023/08/09 00:12:32;;;;;;;4.03;1.45;;;;;;;11.27;100.00;101089.22;4933331;29;20055;-74
2023/08/09 00:14:59;;;;;;;4.25;1.73;;;;;;;11.26;100.00;101091.84;4942557;28;21272;-74
2023/08/09 00:17:26;;;;;;;4.80;1.27;;;;;;;11.23;100.00;101092.72;4966763;28;20046;-73
2023/08/09 00:19:54;;;;;;;4.55;1.50;;;;;;;11.24;100.00;101096.22;4908517;28;20051;-75
2023/08/09 00:22:21;;;;;;;5.68;2.30;;;;;;;11.22;100.00;101084.78;4949531;29;20517;-74
2023/08/09 00:24:49;;;;;;;6.88;1.73;;;;;;;11.19;100.00;101096.22;4930967;29;20051;-75
2023/08/09 00:27:16;;;;;;;4.68;1.65;;;;;;;11.13;100.00;101096.16;4950686;28;20055;-75
2023/08/09 00:29:44;;;;;;;3.03;1.65;;;;;;;11.10;100.00;101090.91;4931931;29;20064;-75
2023/08/09 00:32:11;;;;;;;4.53;1.65;;;;;;;11.10;100.00;101098.81;4945084;28;20039;-75
2023/08/09 00:34:38;;;;;;;5.35;1.65;;;;;;;11.09;100.00;101089.13;4948067;28;20047;-74
2023/08/09 00:37:06;;;;;;;6.57;1.52;;;;;;;11.09;100.00;101097.03;4906091;28;20797;-75
2023/08/09 00:39:34;;;;;;;6.32;1.73;;;;;;;11.07;100.00;101093.50;4965483;28;20245;-75
2023/08/09 00:42:01;;;;;;;5.65;1.27;;;;;;;11.07;100.00;101093.50;4948055;29;20039;-74
2023/08/09 00:44:28;;;;;;;4.07;1.50;;;;;;;11.04;100.00;101096.13;4950468;28;20545;-74
2023/08/09 00:46:56;;;;;;;4.68;1.30;;;;;;;11.02;100.00;101098.78;4940829;28;20051;-74
2023/08/09 00:49:24;;;;;;;3.40;1.40;;;;;;;11.02;100.00;101097.88;4951189;29;20059;-75
2023/08/09 00:51:52;;;;;;;4.40;1.60;;;;;;;11.00;100.00;101099.63;4905045;28;20664;-74
2023/08/09 00:54:22;;;;;;;5.78;1.48;;;;;;;10.99;100.00;101101.38;4956914;28;20051;-74
2023/08/09 00:56:50;;;;;;;5.03;1.50;;;;;;;10.98;100.00;101102.25;4937455;29;20406;-74
2023/08/09 00:59:19;;;;;;;2.80;1.25;;;;;;;10.96;100.00;101104.00;4950367;29;20413;-74
2023/08/09 01:01:46;;;;;;;6.90;1.50;;;;;;;10.96;100.00;101108.41;4940879;29;20043;-74
2023/08/09 01:04:15;;;;;;;4.35;1.27;;;;;;;10.93;100.00;101110.16;4950629;29;20063;-74
2023/08/09 01:07:13;;;;;;;9.35;1.67;;;;;;;10.93;100.00;101109.28;4932871;28;20051;-74
2023/08/09 01:09:59;;;;;;;5.68;1.73;;;;;;;10.93;100.00;101109.28;4962191;28;20051;-76
2023/08/09 01:12:29;;;;;;;4.00;1.40;;;;;;;10.92;100.00;101108.34;4964567;28;20051;-75
2023/08/09 01:14:59;;;;;;;9.00;1.90;;;;;;;10.91;100.00;101108.38;4962055;28;20055;-76
2023/08/09 01:17:31;;;;;;;6.10;1.40;;;;;;;10.89;100.00;101111.00;4942333;28;20051;-74
2023/08/09 01:20:00;;;;;;;2.30;1.33;;;;;;;10.89;100.00;101108.38;4962726;28;20709;-74
2023/08/09 01:22:34;;;;;;;7.47;1.88;;;;;;;10.88;100.00;101101.31;4928248;28;20047;-74
2023/08/09 01:25:06;;;;;;;7.90;1.75;;;;;;;10.88;100.00;101113.63;4954206;28;20051;-74
2023/08/09 01:27:35;;;;;;;4.53;1.38;;;;;;;10.85;100.00;101103.94;4947915;28;20051;-74
2023/08/09 01:30:06;;;;;;;4.85;1.65;;;;;;;10.83;100.00;101110.97;4947106;29;20035;-74
2023/08/09 01:32:34;;;;;;;6.30;1.65;;;;;;;10.83;100.00;101113.59;4957379;28;20051;-74
2023/08/09 01:35:02;;;;;;;2.85;1.30;;;;;;;10.82;100.00;101117.09;4962402;28;20039;-75
2023/08/09 01:37:50;;;;;;;8.18;1.27;;;;;;;10.82;100.00;101116.22;4979271;28;20432;-74
2023/08/09 01:40:19;;;;;;;2.53;1.45;;;;;;;10.81;100.00;101119.72;4951150;28;20051;-74
2023/08/09 01:42:51;;;;;;;6.25;1.40;;;;;;;10.79;100.00;101122.34;4945412;28;20412;-74
2023/08/09 01:45:20;;;;;;;5.25;1.58;;;;;;;10.79;100.00;101126.75;4964356;28;20051;-74
2023/08/09 01:47:47;;;;;;;4.40;1.10;;;;;;;10.77;100.00;101132.00;4956009;28;20043;-74
2023/08/09 01:50:23;;;;;;;7.35;1.60;;;;;;;10.75;100.00;101130.22;4949209;29;20047;-74
2023/08/09 01:52:55;;;;;;;5.25;2.05;;;;;;;10.76;100.00;101132.00;4960653;28;20440;-74
2023/08/09 01:55:25;;;;;;;3.33;1.60;;;;;;;10.75;100.00;101138.13;4937433;28;20054;-74
2023/08/09 01:57:54;;;;;;;5.22;1.45;;;;;;;10.75;100.00;101138.13;4946689;29;20050;-74
2023/08/09 02:00:22;;;;;;;6.45;1.75;;;;;;;10.73;100.00;101125.81;4949009;29;20054;-76
2023/08/09 02:02:51;;;;;;;5.00;1.40;;;;;;;10.72;100.00;101145.16;4972386;28;20039;-74
2023/08/09 02:05:19;;;;;;;4.68;1.42;;;;;;;10.71;100.00;101140.75;4947447;28;20055;-75
2023/08/09 02:07:47;;;;;;;3.17;1.23;;;;;;;10.70;100.00;101141.63;4944715;28;20047;-76
2023/08/09 02:10:17;;;;;;;6.93;1.83;;;;;;;10.69;100.00;101138.97;4908560;28;20051;-76
2023/08/09 02:12:49;;;;;;;6.68;1.73;;;;;;;10.68;100.00;101139.84;4962416;28;20040;-76
2023/08/09 02:15:18;;;;;;;4.18;1.73;;;;;;;10.69;100.00;101141.63;4949748;28;20061;-75
2023/08/09 02:17:46;;;;;;;10.27;1.63;;;;;;;10.67;100.00;101146.88;4948544;29;20055;-74
2023/08/09 02:20:13;;;;;;;4.20;1.45;;;;;;;10.66;100.00;101134.56;4959022;28;20062;-75
2023/08/09 02:22:42;;;;;;;2.53;1.30;;;;;;;10.66;100.00;101147.75;4962471;28;20040;-75
2023/08/09 02:25:10;;;;;;;5.30;1.50;;;;;;;10.67;100.00;101148.63;4905840;28;20414;-75
2023/08/09 02:27:39;;;;;;;5.68;1.70;;;;;;;10.66;100.00;101152.13;4968330;28;20062;-74
2023/08/09 02:30:07;;;;;;;5.85;1.50;;;;;;;10.65;100.00;101145.97;4947092;29;20499;-75
2023/08/09 02:32:36;;;;;;;3.67;1.33;;;;;;;10.65;100.00;101150.38;4947044;28;20047;-75
2023/08/09 02:35:05;;;;;;;5.80;1.45;;;;;;;10.65;100.00;101163.56;4940171;28;20047;-75
2023/08/09 02:37:32;;;;;;;6.47;1.58;;;;;;;10.66;100.00;101160.03;4948130;28;20526;-75
2023/08/09 02:40:01;;;;;;;7.32;1.48;;;;;;;10.64;100.00;101156.50;4904320;28;20440;-74
2023/08/09 02:42:28;;;;;;;2.20;1.30;;;;;;;10.64;100.00;101154.78;4946840;28;20047;-75
2023/08/09 02:44:55;;;;;;;4.28;1.50;;;;;;;10.62;100.00;101158.25;4944276;28;20094;-75
2023/08/09 02:47:23;;;;;;;5.13;1.60;;;;;;;10.60;100.00;101155.59;4948445;29;20055;-75
2023/08/09 02:49:50;;;;;;;4.20;1.67;;;;;;;10.60;100.00;101155.59;4943002;28;20059;-74
2023/08/09 02:52:18;;;;;;;2.75;1.30;;;;;;;10.61;100.00;101169.66;4941450;28;20040;-75
2023/08/09 02:54:47;;;;;;;3.28;1.50;;;;;;;10.61;100.00;101164.41;4960376;28;20043;-75
2023/08/09 02:57:14;;;;;;;3.78;1.73;;;;;;;10.59;100.00;101168.78;4930640;28;20055;-75
2023/08/09 02:59:42;;;;;;;3.45;1.42;;;;;;;10.58;100.00;101159.97;4947665;28;20074;-76
2023/08/09 03:02:09;;;;;;;2.75;1.35;;;;;;;10.58;100.00;101167.88;4947391;28;20052;-75
2023/08/09 03:04:37;;;;;;;3.90;1.60;;;;;;;10.57;100.00;101167.84;4947733;28;20062;-75
2023/08/09 03:07:05;;;;;;;6.22;1.42;;;;;;;10.54;100.00;101169.59;4939067;28;20039;-76
2023/08/09 03:09:34;;;;;;;3.28;1.23;;;;;;;10.53;100.00;101178.38;4962796;28;20055;-74
2023/08/09 03:12:02;;;;;;;5.30;1.63;;;;;;;10.53;100.00;101170.50;4906268;28;20066;-75
2023/08/09 03:14:29;;;;;;;4.10;1.20;;;;;;;10.50;100.00;101170.44;4967856;28;20054;-75
2023/08/09 03:16:57;;;;;;;5.20;1.35;;;;;;;10.48;100.00;101168.69;4946259;28;20460;-75
2023/08/09 03:19:24;;;;;;;4.65;1.10;;;;;;;10.46;100.00;101168.66;4979534;28;20062;-75
2023/08/09 03:21:52;;;;;;;5.45;1.63;;;;;;;10.46;100.00;101173.06;4969491;28;20054;-75
2023/08/09 03:24:20;;;;;;;5.00;1.27;;;;;;;10.45;100.00;101171.28;4963610;28;20394;-75
2023/08/09 03:26:47;;;;;;;4.93;1.70;;;;;;;10.45;100.00;101174.81;4920397;28;20073;-77
2023/08/09 03:29:17;;;;;;;1.73;1.07;;;;;;;10.45;100.00;101177.44;4926861;28;20056;-76
2023/08/09 03:31:45;;;;;;;2.47;1.40;;;;;;;10.46;100.00;101180.97;4960669;28;20051;-75
2023/08/09 03:34:15;;;;;;;8.00;1.43;;;;;;;10.45;100.00;101184.44;4948822;28;20043;-76
2023/08/09 03:36:44;;;;;;;3.33;1.50;;;;;;;10.46;100.00;101180.97;4944924;28;20413;-75
2023/08/09 03:39:12;;;;;;;6.55;1.92;;;;;;;10.47;100.00;101193.25;4933130;28;20066;-75
2023/08/09 03:41:41;;;;;;;4.45;1.95;;;;;;;10.46;100.00;101204.69;4948796;29;20043;-74
2023/08/09 03:44:10;;;;;;;5.00;1.67;;;;;;;10.45;100.00;101198.53;4909005;28;20043;-76
2023/08/09 03:46:38;;;;;;;4.13;1.50;;;;;;;10.44;100.00;101191.47;4980877;28;20752;-76
2023/08/09 03:49:05;;;;;;;2.25;1.35;;;;;;;10.43;100.00;101199.38;4948929;29;20043;-76
2023/08/09 03:51:38;;;;;;;6.72;1.83;;;;;;;10.39;100.00;101192.31;4948118;28;20051;-75
2023/08/09 03:54:06;;;;;;;8.60;1.50;;;;;;;10.38;100.00;101194.06;4943465;28;20055;-76
2023/08/09 03:56:33;;;;;;;3.53;1.35;;;;;;;10.38;100.00;101201.06;4966515;28;20051;-75
2023/08/09 03:59:01;;;;;;;2.60;1.50;;;;;;;10.37;100.00;101202.81;4894187;28;20047;-75
2023/08/09 04:01:28;;;;;;;2.78;1.45;;;;;;;10.35;100.00;101207.19;4934972;28;20059;-75
2023/08/09 04:03:56;;;;;;;2.45;1.67;;;;;;;10.37;100.00;101213.34;4949847;28;20043;-75
2023/08/09 04:06:24;;;;;;;2.75;1.52;;;;;;;10.39;100.00;101219.53;4949931;28;20409;-76
2023/08/09 04:08:52;;;;;;;2.10;1.20;;;;;;;10.42;100.00;101216.06;4940284;28;20051;-76
2023/08/09 04:11:19;;;;;;;1.90;1.40;;;;;;;10.41;100.00;101215.16;4934305;29;20069;-76
2023/08/09 04:13:46;;;;;;;3.00;1.70;;;;;;;10.42;100.00;101222.19;4948779;28;20062;-74
2023/08/09 04:16:14;;;;;;;6.03;1.52;;;;;;;10.44;100.00;101224.84;4912028;28;20055;-75
2023/08/09 04:18:41;;;;;;;4.00;1.60;;;;;;;10.44;100.00;101230.13;4981812;28;20058;-74
2023/08/09 04:21:09;;;;;;;10.77;1.60;;;;;;;10.46;100.00;101231.91;4965272;28;20051;-75
2023/08/09 04:23:37;;;;;;;2.33;1.35;;;;;;;10.47;100.00;101225.78;4974497;28;20544;-74
2023/08/09 04:26:05;;;;;;;3.17;1.20;;;;;;;10.46;100.00;101234.53;4950690;29;20047;-74
2023/08/09 04:28:32;;;;;;;5.00;1.30;;;;;;;10.47;100.00;101240.69;4966246;28;20047;-74
2023/08/09 04:31:01;;;;;;;7.00;1.58;;;;;;;10.49;100.00;101241.56;4917662;28;20047;-74
2023/08/09 04:33:29;;;;;;;2.15;1.30;;;;;;;10.49;100.00;101242.47;4963817;28;20055;-75
2023/08/09 04:35:56;;;;;;;3.72;2.22;;;;;;;10.49;100.00;101246.84;4948646;29;20035;-74
2023/08/09 04:38:23;;;;;;;3.55;1.80;;;;;;;10.50;100.00;101244.22;4948894;29;20059;-74
2023/08/09 04:40:51;;;;;;;3.28;2.00;;;;;;;10.50;100.00;101241.59;4939599;28;20047;-74
2023/08/09 04:43:18;;;;;;;4.72;1.58;;;;;;;10.52;100.00;101245.13;4933614;29;20536;-74
2023/08/09 04:45:47;;;;;;;6.90;1.60;;;;;;;10.55;100.00;101249.56;4906831;28;20047;-74
2023/08/09 04:48:17;;;;;;;1.80;1.33;;;;;;;10.57;100.00;101254.81;4981833;28;20055;-74
2023/08/09 04:50:44;;;;;;;3.60;1.50;;;;;;;10.57;100.00;101253.09;4947653;29;20054;-74
2023/08/09 04:53:11;;;;;;;6.05;1.58;;;;;;;10.60;100.00;101253.09;4949384;29;20066;-74
2023/08/09 04:55:39;;;;;;;1.67;1.33;;;;;;;10.76;100.00;101255.91;4942279;28;20051;-74
2023/08/09 04:58:06;;;;;;;2.50;1.48;;;;;;;10.99;100.00;101258.72;4950426;29;20102;-75
2023/08/09 05:00:34;;;;;;;2.55;1.20;;;;;;;11.55;100.00;101262.63;4938148;28;20051;-75
2023/08/09 05:03:01;;;;;;;2.97;1.35;;;;;;;12.01;100.00;101265.53;4923249;28;20039;-75
2023/08/09 05:05:29;;;;;;;4.35;1.30;;;;;;;12.46;100.00;101256.84;4951522;29;20055;-75
2023/08/09 05:07:56;;;;;;;5.00;1.63;;;;;;;13.12;100.00;101269.25;4946131;28;20055;-74
2023/08/09 05:10:26;;;;;;;1.37;1.13;;;;;;;13.63;100.00;101262.13;4950097;29;20051;-75
2023/08/09 05:12:53;;;;;;;3.90;1.52;;;;;;;13.96;100.00;101270.84;4941454;28;20848;-73
2023/08/09 05:15:21;;;;;;;1.00;0.98;;;;;;;14.08;100.00;101271.66;4948540;29;20059;-75
2023/08/09 05:17:48;;;;;;;3.70;1.00;;;;;;;14.14;100.00;101274.28;4921165;28;20055;-74
2023/08/09 05:20:16;;;;;;;2.28;1.15;;;;;;;14.10;100.00;101278.75;4964666;28;20054;-74
2023/08/09 05:22:44;;;;;;;1.60;1.20;;;;;;;14.13;100.00;101281.38;4947158;28;20047;-74
2023/08/09 05:25:11;;;;;;;1.75;1.15;;;;;;;14.47;100.00;101280.31;4932917;29;20051;-74
2023/08/09 05:27:39;;;;;;;1.58;1.20;;;;;;;15.05;100.00;101289.63;4942196;28;20050;-74
2023/08/09 05:30:07;;;;;;;2.88;1.30;;;;;;;15.59;100.00;101287.38;4947876;28;20059;-74
2023/08/09 05:32:35;;;;;;;4.53;1.27;;;;;;;16.01;100.00;101286.94;4905803;28;20055;-74
2023/08/09 05:35:02;;;;;;;2.95;1.30;;;;;;;16.07;100.00;101290.41;4961987;28;20065;-74
2023/08/09 05:37:30;;;;;;;4.57;1.02;;;;;;;15.89;100.00;101287.97;4948006;29;20058;-74
2023/08/09 05:39:57;;;;;;;1.60;0.90;;;;;;;15.61;100.00;101290.88;4945144;29;20050;-74
2023/08/09 05:42:24;;;;;;;9.20;1.20;;;;;;;15.37;100.00;101292.03;4948444;29;20051;-74
2023/08/09 05:44:52;;;;;;;5.72;1.38;;;;;;;15.14;100.00;101298.44;4938317;29;20052;-75
2023/08/09 05:47:19;;;;;;;3.88;1.25;;;;;;;15.01;100.00;101300.31;4910766;28;20047;-74
2023/08/09 05:49:46;;;;;;;3.70;1.30;;;;;;;14.88;100.00;101303.06;4935878;29;20051;-74
2023/08/09 05:52:14;;;;;;;4.93;1.45;;;;;;;14.93;100.00;101303.91;4946423;29;20055;-74
2023/08/09 05:54:41;;;;;;;2.80;1.23;;;;;;;15.19;100.00;101301.91;4945974;29;20499;-75
2023/08/09 05:57:09;;;;;;;5.60;1.30;;;;;;;15.30;100.00;101307.13;4947891;28;20047;-74
2023/08/09 05:59:36;;;;;;;5.60;0.88;;;;;;;15.43;100.00;101310.56;4972227;28;20058;-74
2023/08/09 06:02:06;;;;;;;2.00;1.00;;;;;;;15.74;100.00;101310.28;4945431;29;20575;-74
2023/08/09 06:04:34;;;;;;;7.45;1.27;;;;;;;16.15;100.00;101308.91;4916271;28;20046;-74
2023/08/09 06:07:01;;;;;;;5.03;1.17;;;;;;;16.54;100.00;101318.16;4947636;29;20050;-74
2023/08/09 06:09:29;;;;;;;3.65;1.27;;;;;;;16.72;100.00;101317.00;4947511;28;20074;-75
2023/08/09 06:12:14;;;;;;;2.17;1.10;;;;;;;16.84;100.00;101323.06;4947045;29;20062;-74
2023/08/09 06:14:42;;;;;;;5.05;1.10;;;;;;;16.78;100.00;101321.34;4940308;28;20047;-76
2023/08/09 06:17:09;;;;;;;4.90;1.60;;;;;;;16.75;100.00;101324.94;4947679;29;20050;-75
2023/08/09 06:19:36;;;;;;;1.60;1.23;;;;;;;16.79;100.00;101328.44;4935580;28;20074;-75
2023/08/09 06:22:04;;;;;;;5.53;0.95;;;;;;;16.71;100.00;101331.22;4978251;28;20571;-75
2023/08/09 06:24:32;;;;;;;1.65;1.17;;;;;;;16.59;100.00;101334.03;4947624;28;20035;-75
2023/08/09 06:26:59;;;;;;;2.25;1.27;;;;;;;16.46;100.00;101335.09;4944807;29;20054;-74
2023/08/09 06:29:27;;;;;;;3.13;0.90;;;;;;;16.38;100.00;101338.75;4942493;28;20074;-74
2023/08/09 06:31:54;;;;;;;3.80;1.67;;;;;;;16.32;100.00;101332.63;4944708;29;20051;-74
2023/08/09 06:34:22;;;;;;;5.75;1.60;;;;;;;16.34;100.00;101341.47;4912034;28;20492;-74
2023/08/09 06:36:49;;;;;;;2.53;1.10;;;;;;;16.34;100.00;101338.81;4955605;28;20078;-74
2023/08/09 06:39:17;;;;;;;4.10;1.30;;;;;;;16.36;100.00;101340.53;4932073;28;20054;-75
2023/08/09 06:41:44;;;;;;;5.88;1.20;;;;;;;16.41;100.00;101334.28;4944810;28;20062;-74
2023/08/09 06:44:11;;;;;;;3.22;0.85;;;;;;;16.64;100.00;101337.53;4945567;29;20030;-74
2023/08/09 06:46:39;;;;;;;9.77;1.35;;;;;;;17.01;100.00;101342.31;4945997;29;20417;-75
2023/08/09 06:49:06;;;;;;;5.25;1.40;;;;;;;17.15;100.00;101342.13;4907915;28;20062;-75
2023/08/09 06:51:33;;;;;;;2.95;1.20;;;;;;;17.11;100.00;101349.28;4962996;28;20043;-74
2023/08/09 06:54:01;;;;;;;5.03;1.45;;;;;;;17.05;100.00;101348.47;4945482;28;20051;-74
2023/08/09 06:56:29;;;;;;;2.60;0.82;;;;;;;16.95;100.00;101347.75;4947858;29;20059;-74
2023/08/09 06:58:56;;;;;;;2.70;0.90;;;;;;;16.86;100.00;101350.53;4938936;28;20078;-74
2023/08/09 07:01:23;;;;;;;3.15;1.08;;;;;;;16.83;100.00;101350.59;4931533;29;20512;-75
2023/08/09 07:03:52;;;;;;;3.65;1.25;;;;;;;16.81;100.00;101363.91;4903121;28;20058;-74
2023/08/09 07:06:20;;;;;;;1.15;1.00;;;;;;;16.83;100.00;101366.56;4962481;28;20449;-73
2023/08/09 07:08:47;;;;;;;4.70;1.38;;;;;;;16.81;100.00;101365.69;4945860;28;20050;-74
2023/08/09 07:11:14;;;;;;;4.53;1.10;;;;;;;16.78;100.00;101366.59;4950154;28;20068;-74
2023/08/09 07:13:42;;;;;;;5.55;1.17;;;;;;;16.82;100.00;101370.09;4946488;28;20059;-74
2023/08/09 07:16:09;;;;;;;4.78;1.27;;;;;;;16.83;100.00;101366.56;4931621;29;20054;-75
2023/08/09 07:18:37;;;;;;;2.70;1.27;;;;;;;16.86;100.00;101366.50;4981093;28;20055;-75
2023/08/09 07:21:04;;;;;;;1.25;0.90;;;;;;;16.95;100.00;101366.38;4940063;28;20051;-75
2023/08/09 07:23:32;;;;;;;2.42;1.17;;;;;;;17.11;100.00;101372.38;4965940;28;20051;-74
2023/08/09 07:26:19;;;;;;;6.10;1.38;;;;;;;17.32;100.00;101371.13;4936729;28;20063;-74
2023/08/09 07:28:47;;;;;;;3.38;1.33;;;;;;;17.56;100.00;101372.50;4942070;28;20058;-74
2023/08/09 07:31:20;;;;;;;2.83;1.35;;;;;;;17.68;100.00;101366.94;4952124;29;20055;-74
2023/08/09 07:33:48;;;;;;;3.35;1.17;;;;;;;17.81;100.00;101372.94;4946822;28;20051;-74
2023/08/09 07:36:16;;;;;;;6.20;0.98;;;;;;;17.85;100.00;101369.34;4910893;28;20039;-75
2023/08/09 07:38:43;;;;;;;2.47;1.20;;;;;;;17.94;100.00;101368.31;4956606;28;20062;-74
2023/08/09 07:41:10;;;;;;;1.05;0.80;;;;;;;17.98;100.00;101375.31;4948968;29;20497;-74
2023/08/09 07:43:38;;;;;;;2.65;0.80;;;;;;;17.91;100.00;101377.22;4947878;28;20067;-76
2023/08/09 07:46:06;;;;;;;4.88;1.45;;;;;;;17.85;100.00;101374.66;4942484;28;20048;-74
2023/08/09 07:48:33;;;;;;;4.05;1.00;;;;;;;17.85;100.00;101380.00;4949847;28;20059;-75
2023/08/09 07:51:01;;;;;;;5.00;1.27;;;;;;;17.86;100.00;101375.53;4907858;28;20062;-74
2023/08/09 07:53:29;;;;;;;2.42;1.33;;;;;;;17.84;100.00;101377.31;4951425;29;20062;-74
2023/08/09 07:55:56;;;;;;;6.65;1.75;;;;;;;17.88;100.00;101389.72;4948518;29;20039;-75
2023/08/09 07:58:23;;;;;;;1.02;0.88;;;;;;;17.85;100.00;101388.00;4950757;28;20062;-75
2023/08/09 08:00:51;;;;;;;6.80;1.25;;;;;;;17.87;100.00;101388.84;4940215;28;20058;-75
2023/08/09 08:03:18;;;;;;;3.00;1.00;;;;;;;17.91;100.00;101393.22;4933927;28;20046;-76
2023/08/09 08:05:45;;;;;;;5.93;1.05;;;;;;;17.96;100.00;101394.91;4931634;29;20048;-75
2023/08/09 08:08:17;;;;;;;7.15;1.27;;;;;;;18.00;100.00;101392.16;4906707;28;20401;-74
2023/08/09 08:10:45;;;;;;;2.13;1.10;;;;;;;18.03;100.00;101404.56;4979049;28;20047;-75
2023/08/09 08:13:12;;;;;;;3.45;1.20;;;;;;;18.04;100.00;101406.34;4949516;29;20043;-75
2023/08/09 08:15:40;;;;;;;2.20;0.93;;;;;;;18.08;100.00;101408.03;4947774;28;20432;-74
2023/08/09 08:18:08;;;;;;;5.00;1.10;;;;;;;18.09;100.00;101405.34;4937294;28;20047;-74
2023/08/09 08:20:35;;;;;;;3.47;1.13;;;;;;;18.11;100.00;101413.31;4982456;28;20051;-75
2023/08/09 08:23:06;;;;;;;3.55;1.40;;;;;;;18.12;100.00;101409.72;4923301;28;20050;-75
2023/08/09 08:25:33;;;;;;;;;;;;;;;18.14;100.00;101412.38;4966413;28;20055;-75
2023/08/09 08:28:01;;;;;;;1.23;1.08;;;;;;;18.18;100.00;101412.25;4948011;28;19926;-75
2023/08/09 08:30:28;;;;;;;3.10;1.33;;;;;;;18.28;100.00;101415.66;4951221;29;20043;-75
2023/08/09 08:32:56;;;;;;;1.23;0.70;;;;;;;18.34;100.00;101417.31;4941397;28;20062;-75
2023/08/09 08:35:24;;;;;;;2.75;1.00;;;;;;;18.33;100.00;101424.41;4950257;28;20054;-75
2023/08/09 08:37:55;;;;;;;3.22;1.20;;;;;;;18.33;100.00;101431.56;4904535;28;20059;-75
2023/08/09 08:40:22;;;;;;;1.20;0.90;;;;;;;18.37;100.00;101435.91;4962933;28;20051;-75
2023/08/09 08:42:51;;;;;;;2.00;0.80;;;;;;;18.43;100.00;101439.34;4947624;29;20494;-75
2023/08/09 08:45:19;;;;;;;3.00;0.90;;;;;;;18.53;100.00;101432.03;4949256;28;20062;-75
2023/08/09 08:47:47;;;;;;;4.35;1.10;;;;;;;18.51;97.12;101434.72;4937665;28;20060;-75
2023/08/09 08:50:16;;;;;;;2.35;0.82;;;;;;;18.51;98.18;101433.88;4947918;29;20051;-74
2023/08/09 08:52:46;;;;;;;4.75;1.25;;;;;;;18.49;97.00;101443.69;4948443;29;20047;-74
2023/08/09 08:55:15;;;;;;;4.13;1.08;;;;;;;18.47;97.25;101432.16;4907596;28;20047;-74
2023/08/09 08:57:43;;;;;;;4.00;1.15;;;;;;;18.49;98.19;101441.03;4962402;28;20516;-75
2023/08/09 09:00:15;;;;;;;3.67;1.00;;;;;;;18.44;99.08;101441.09;4950700;29;20054;-75
2023/08/09 09:02:52;;;;;;;4.90;0.80;;;;;;;18.45;100.00;101439.28;4939285;28;20858;-75
2023/08/09 09:05:20;;;;;;;4.07;1.00;;;;;;;18.46;100.00;101446.41;4948987;29;20059;-75
2023/08/09 09:07:51;;;;;;;3.03;1.10;;;;;;;18.52;100.00;101435.59;4929605;29;20054;-75
2023/08/09 09:10:20;;;;;;;4.00;0.80;;;;;;;18.63;99.21;101449.59;4906691;28;20051;-75
2023/08/09 09:12:50;;;;;;;1.38;0.90;;;;;;;18.68;97.60;101445.06;4962819;28;20046;-74
2023/08/09 09:15:18;;;;;;;3.38;1.38;;;;;;;18.76;97.12;101442.22;4948132;28;20417;-74
2023/08/09 09:17:46;;;;;;;0.75;0.75;;;;;;;18.80;96.58;101440.38;4941180;28;20055;-75
2023/08/09 09:20:21;;;;;;;1.55;0.93;;;;;;;18.91;96.59;101446.38;4933218;28;20055;-75
2023/08/09 09:22:48;;;;;;;3.13;1.00;;;;;;;19.02;93.90;101444.38;4947468;29;20054;-75
2023/08/09 09:25:17;;;;;;;1.70;0.88;;;;;;;19.02;91.64;101440.81;4920297;28;20047;-75
2023/08/09 09:27:52;;;;;;;2.08;0.82;;;;;;;18.95;90.01;101452.53;4946678;29;20047;-75
2023/08/09 09:30:21;;;;;;;1.20;0.70;;;;;;;18.89;92.27;101445.56;4948942;28;20051;-75
2023/08/09 09:32:51;;;;;;;1.58;0.93;;;;;;;18.97;91.49;101450.72;4939517;28;20059;-75
2023/08/09 09:35:20;;;;;;;2.83;1.00;;;;;;;19.07;89.53;101450.50;4949619;29;20047;-75
2023/08/09 09:37:48;;;;;;;1.80;1.00;;;;;;;19.18;88.60;101447.53;4945043;29;20055;-75
2023/08/09 09:40:29;;;;;;;1.35;0.70;;;;;;;19.37;87.33;101453.34;4905660;28;20055;-75
2023/08/09 09:42:58;;;;;;;1.90;0.90;;;;;;;19.52;86.24;101452.09;4961716;28;20055;-76
2023/08/09 09:45:28;;;;;;;2.42;1.35;;;;;;;19.66;84.37;101454.44;4963955;28;20400;-75
2023/08/09 09:47:58;;;;;;;7.75;1.15;;;;;;;19.78;84.58;101453.28;4938573;29;20078;-75
2023/08/09 09:50:28;;;;;;;4.43;1.15;;;;;;;19.86;83.52;101452.16;4948555;28;20058;-75
2023/08/09 09:52:55;;;;;;;3.35;0.90;;;;;;;19.96;82.50;101454.59;4944818;29;20531;-74
2023/08/09 09:55:26;;;;;;;2.25;0.98;;;;;;;19.90;82.72;101455.63;4948928;28;20413;-75
2023/08/09 09:57:55;;;;;;;2.50;0.95;;;;;;;19.76;82.77;101455.13;4915328;28;20051;-75
2023/08/09 10:00:22;;;;;;;2.83;0.82;;;;;;;19.51;82.38;101463.72;4948853;28;20509;-75
2023/08/09 10:02:51;;;;;;;2.55;1.23;;;;;;;19.40;83.85;101466.63;4944945;28;20062;-75
2023/08/09 10:05:22;;;;;;;1.70;1.00;;;;;;;19.47;84.36;101460.25;4943196;28;20058;-74
2023/08/09 10:07:50;;;;;;;;;;;;;;;19.59;82.45;101463.53;4946892;29;20047;-74
2023/08/09 10:10:21;;;;;;;2.25;1.27;;;;;;;19.76;85.30;101456.00;4948883;28;19922;-75
2023/08/09 10:12:55;;;;;;;1.17;1.08;;;;;;;19.85;82.99;101449.53;4914581;28;20057;-74
2023/08/09 10:15:29;;;;;;;0.90;0.68;;;;;;;19.79;83.06;101463.94;4953233;28;20051;-75
2023/08/09 10:18:02;;;;;;;1.13;1.02;;;;;;;19.62;84.43;101466.09;4945851;29;20051;-74
2023/08/09 10:20:31;;;;;;;0.82;0.70;;;;;;;19.43;84.44;101471.03;4957414;28;20054;-75
2023/08/09 10:22:59;;;;;;;1.85;1.02;;;;;;;19.29;85.79;101466.88;4946740;29;20047;-76
2023/08/09 10:25:45;;;;;;;2.53;0.88;;;;;;;19.21;87.10;101468.00;4963565;28;20050;-75
2023/08/09 10:28:13;;;;;;;2.63;0.77;;;;;;;19.40;88.88;101473.78;4913273;28;20047;-76
2023/08/09 10:30:47;;;;;;;1.95;0.85;;;;;;;19.51;86.48;101460.16;4957531;28;20394;-75
2023/08/09 10:33:18;;;;;;;2.53;0.88;;;;;;;19.53;87.00;101469.00;4947028;29;20043;-74
2023/08/09 10:35:57;;;;;;;1.48;1.00;;;;;;;19.45;85.95;101470.09;4940594;28;20047;-75
2023/08/09 10:38:30;;;;;;;1.15;0.95;;;;;;;19.33;86.58;101474.84;4961065;28;20039;-75
2023/08/09 10:41:14;;;;;;;2.78;1.00;;;;;;;19.24;86.80;101474.16;4947801;28;20062;-75
2023/08/09 10:43:41;;;;;;;1.85;1.17;;;;;;;19.19;87.23;101485.84;4912160;28;20058;-75
2023/08/09 10:46:24;;;;;;;1.52;0.77;;;;;;;19.33;87.58;101490.88;4969307;28;20047;-74
2023/08/09 10:48:53;;;;;;;2.35;0.85;;;;;;;19.44;88.27;101483.47;4944210;29;20042;-74
2023/08/09 10:51:23;;;;;;;3.22;0.88;;;;;;;19.43;88.62;101487.97;4947879;29;20055;-75
2023/08/09 10:54:06;;;;;;;1.90;1.10;;;;;;;19.32;85.04;101495.34;4954781;28;20047;-75
2023/08/09 10:56:45;;;;;;;1.95;1.25;;;;;;;19.45;88.43;101487.91;4946828;29;20039;-77
2023/08/09 10:59:24;;;;;;;2.55;1.83;;;;;;;19.52;87.11;101483.31;4920494;28;20412;-76
2023/08/09 11:01:53;;;;;;;1.63;1.00;;;;;;;19.51;87.85;101485.09;4945429;28;20044;-76
2023/08/09 11:04:20;;;;;;;1.30;1.05;;;;;;;19.45;86.90;101491.47;4948361;28;20047;-76
2023/08/09 11:06:49;;;;;;;1.92;1.10;;;;;;;19.37;87.68;101500.56;4941018;29;20044;-76
2023/08/09 11:09:19;;;;;;;5.03;0.90;;;;;;;19.23;88.13;101500.91;4948734;29;20055;-76
2023/08/09 11:11:48;;;;;;;1.23;0.80;;;;;;;19.05;89.12;101505.75;4945029;29;20433;-76
2023/08/09 11:14:21;;;;;;;3.78;1.00;;;;;;;18.96;88.54;101510.38;4912091;28;20294;-76
2023/08/09 11:16:50;;;;;;;4.50;1.10;;;;;;;19.06;89.83;101501.25;4950734;28;20047;-76
2023/08/09 11:19:20;;;;;;;1.33;1.10;;;;;;;19.33;89.80;101510.44;4949200;29;20043;-76
2023/08/09 11:22:02;;;;;;;4.63;1.50;;;;;;;19.66;88.37;101510.59;4944990;28;21073;-76
2023/08/09 11:24:30;;;;;;;3.45;0.90;;;;;;;19.70;86.14;101514.94;4956637;28;20048;-76
2023/08/09 11:26:58;;;;;;;2.50;0.90;;;;;;;19.62;85.11;101514.22;4959547;28;20051;-76